sensor_id;sensor_type;location;lat;lon;timestamp;P1;durP1;ratioP1;P2;durP2;ratioP2
15055;SDS011;7626;42.674;23.284;2023-05-27T00:01:09;7.67;;;5.70;;
15055;SDS011;7626;42.674;23.284;2023-05-27T00:03:39;9.03;;;7.80;;
15055;SDS011;7626;42.674;23.284;2023-05-27T00:06:06;11.07;;;8.70;;
15055;SDS011;7626;42.674;23.284;2023-05-27T00:08:33;9.87;;;8.93;;
15055;SDS011;7626;42.674;23.284;2023-05-27T00:10:59;10.80;;;9.67;;
15055;SDS011;7626;42.674;23.284;2023-05-27T00:13:26;11.47;;;10.10;;
15055;SDS011;7626;42.674;23.284;2023-05-27T00:15:53;11.73;;;10.53;;
15055;SDS011;7626;42.674;23.284;2023-05-27T00:18:20;10.57;;;9.57;;
15055;SDS011;7626;42.674;23.284;2023-05-27T00:20:48;12.23;;;10.27;;
15055;SDS011;7626;42.674;23.284;2023-05-27T00:23:15;12.23;;;10.90;;
15055;SDS011;7626;42.674;23.284;2023-05-27T00:25:42;11.10;;;10.00;;
15055;SDS011;7626;42.674;23.284;2023-05-27T00:28:10;11.53;;;10.40;;
15055;SDS011;7626;42.674;23.284;2023-05-27T00:30:37;11.10;;;9.47;;
15055;SDS011;7626;42.674;23.284;2023-05-27T00:33:03;10.60;;;9.00;;
15055;SDS011;7626;42.674;23.284;2023-05-27T00:35:30;9.90;;;9.00;;
15055;SDS011;7626;42.674;23.284;2023-05-27T00:37:58;9.07;;;8.03;;
15055;SDS011;7626;42.674;23.284;2023-05-27T00:40:26;8.03;;;7.30;;
15055;SDS011;7626;42.674;23.284;2023-05-27T00:42:55;6.40;;;5.80;;
15055;SDS011;7626;42.674;23.284;2023-05-27T00:45:22;6.27;;;5.67;;
15055;SDS011;7626;42.674;23.284;2023-05-27T00:47:48;6.40;;;5.70;;
15055;SDS011;7626;42.674;23.284;2023-05-27T00:50:17;6.40;;;5.73;;
15055;SDS011;7626;42.674;23.284;2023-05-27T00:52:44;5.97;;;5.47;;
15055;SDS011;7626;42.674;23.284;2023-05-27T00:55:12;6.30;;;5.70;;
15055;SDS011;7626;42.674;23.284;2023-05-27T00:57:39;6.07;;;5.57;;
15055;SDS011;7626;42.674;23.284;2023-05-27T01:00:06;5.70;;;5.10;;
15055;SDS011;7626;42.674;23.284;2023-05-27T01:02:36;5.30;;;4.90;;
15055;SDS011;7626;42.674;23.284;2023-05-27T01:05:05;5.13;;;4.73;;
15055;SDS011;7626;42.674;23.284;2023-05-27T01:07:35;5.10;;;4.33;;
15055;SDS011;7626;42.674;23.284;2023-05-27T01:10:14;4.60;;;4.20;;
15055;SDS011;7626;42.674;23.284;2023-05-27T01:12:47;4.07;;;3.77;;
15055;SDS011;7626;42.674;23.284;2023-05-27T01:15:19;4.17;;;3.77;;
15055;SDS011;7626;42.674;23.284;2023-05-27T01:17:48;3.90;;;3.50;;
15055;SDS011;7626;42.674;23.284;2023-05-27T01:20:19;3.03;;;2.83;;
15055;SDS011;7626;42.674;23.284;2023-05-27T01:22:48;3.20;;;3.00;;
15055;SDS011;7626;42.674;23.284;2023-05-27T01:25:17;3.00;;;2.70;;
15055;SDS011;7626;42.674;23.284;2023-05-27T01:27:44;2.60;;;2.40;;
15055;SDS011;7626;42.674;23.284;2023-05-27T01:30:11;2.30;;;2.10;;
15055;SDS011;7626;42.674;23.284;2023-05-27T01:32:41;2.80;;;2.60;;
15055;SDS011;7626;42.674;23.284;2023-05-27T01:35:14;3.53;;;2.40;;
15055;SDS011;7626;42.674;23.284;2023-05-27T01:37:49;2.80;;;2.50;;
15055;SDS011;7626;42.674;23.284;2023-05-27T01:40:18;2.83;;;2.50;;
15055;SDS011;7626;42.674;23.284;2023-05-27T01:42:45;2.93;;;2.20;;
15055;SDS011;7626;42.674;23.284;2023-05-27T01:45:14;2.40;;;2.20;;
15055;SDS011;7626;42.674;23.284;2023-05-27T01:47:42;2.60;;;2.30;;
15055;SDS011;7626;42.674;23.284;2023-05-27T01:50:09;3.27;;;2.00;;
15055;SDS011;7626;42.674;23.284;2023-05-27T01:52:36;2.63;;;2.13;;
15055;SDS011;7626;42.674;23.284;2023-05-27T01:55:05;1.90;;;1.80;;
15055;SDS011;7626;42.674;23.284;2023-05-27T01:57:32;2.57;;;2.30;;
15055;SDS011;7626;42.674;23.284;2023-05-27T01:59:59;4.20;;;2.10;;
15055;SDS011;7626;42.674;23.284;2023-05-27T02:02:26;2.50;;;2.23;;
15055;SDS011;7626;42.674;23.284;2023-05-27T02:04:53;3.30;;;2.10;;
15055;SDS011;7626;42.674;23.284;2023-05-27T02:07:19;2.33;;;2.13;;
15055;SDS011;7626;42.674;23.284;2023-05-27T02:09:47;2.47;;;2.20;;
15055;SDS011;7626;42.674;23.284;2023-05-27T02:12:16;3.60;;;2.50;;
15055;SDS011;7626;42.674;23.284;2023-05-27T02:14:43;3.00;;;2.80;;
15055;SDS011;7626;42.674;23.284;2023-05-27T02:17:10;4.30;;;2.77;;
15055;SDS011;7626;42.674;23.284;2023-05-27T02:19:36;3.10;;;2.80;;
15055;SDS011;7626;42.674;23.284;2023-05-27T02:22:03;3.47;;;3.20;;
15055;SDS011;7626;42.674;23.284;2023-05-27T02:24:30;3.50;;;3.20;;
15055;SDS011;7626;42.674;23.284;2023-05-27T02:26:57;4.87;;;3.90;;
15055;SDS011;7626;42.674;23.284;2023-05-27T02:29:25;4.17;;;3.77;;
15055;SDS011;7626;42.674;23.284;2023-05-27T02:31:52;4.63;;;4.00;;
15055;SDS011;7626;42.674;23.284;2023-05-27T02:34:19;4.73;;;3.80;;
15055;SDS011;7626;42.674;23.284;2023-05-27T02:36:45;4.70;;;4.30;;
15055;SDS011;7626;42.674;23.284;2023-05-27T02:39:12;4.70;;;4.30;;
15055;SDS011;7626;42.674;23.284;2023-05-27T02:41:39;5.07;;;4.57;;
15055;SDS011;7626;42.674;23.284;2023-05-27T02:44:06;5.77;;;4.90;;
15055;SDS011;7626;42.674;23.284;2023-05-27T02:46:34;5.00;;;4.60;;
15055;SDS011;7626;42.674;23.284;2023-05-27T02:49:01;5.40;;;4.90;;
15055;SDS011;7626;42.674;23.284;2023-05-27T02:51:28;5.50;;;5.00;;
15055;SDS011;7626;42.674;23.284;2023-05-27T02:53:55;6.13;;;4.90;;
15055;SDS011;7626;42.674;23.284;2023-05-27T02:56:22;5.97;;;5.37;;
15055;SDS011;7626;42.674;23.284;2023-05-27T02:58:51;5.67;;;4.97;;
15055;SDS011;7626;42.674;23.284;2023-05-27T03:01:17;5.70;;;5.10;;
15055;SDS011;7626;42.674;23.284;2023-05-27T03:03:45;5.57;;;5.00;;
15055;SDS011;7626;42.674;23.284;2023-05-27T03:06:12;5.90;;;4.80;;
15055;SDS011;7626;42.674;23.284;2023-05-27T03:08:39;5.60;;;5.00;;
15055;SDS011;7626;42.674;23.284;2023-05-27T03:11:06;5.70;;;4.67;;
15055;SDS011;7626;42.674;23.284;2023-05-27T03:13:33;5.90;;;4.73;;
15055;SDS011;7626;42.674;23.284;2023-05-27T03:16:00;4.93;;;4.43;;
15055;SDS011;7626;42.674;23.284;2023-05-27T03:18:27;5.30;;;4.30;;
15055;SDS011;7626;42.674;23.284;2023-05-27T03:20:55;6.00;;;4.57;;
15055;SDS011;7626;42.674;23.284;2023-05-27T03:23:22;5.00;;;4.50;;
15055;SDS011;7626;42.674;23.284;2023-05-27T03:25:48;4.70;;;4.30;;
15055;SDS011;7626;42.674;23.284;2023-05-27T03:28:15;4.50;;;4.10;;
15055;SDS011;7626;42.674;23.284;2023-05-27T03:30:42;4.70;;;4.20;;
15055;SDS011;7626;42.674;23.284;2023-05-27T03:33:09;5.03;;;4.00;;
15055;SDS011;7626;42.674;23.284;2023-05-27T03:35:36;5.10;;;4.10;;
15055;SDS011;7626;42.674;23.284;2023-05-27T03:38:04;5.27;;;3.90;;
15055;SDS011;7626;42.674;23.284;2023-05-27T03:40:31;4.47;;;3.93;;
15055;SDS011;7626;42.674;23.284;2023-05-27T03:42:57;3.93;;;3.63;;
15055;SDS011;7626;42.674;23.284;2023-05-27T03:45:24;4.20;;;3.80;;
15055;SDS011;7626;42.674;23.284;2023-05-27T03:47:51;3.80;;;3.50;;
15055;SDS011;7626;42.674;23.284;2023-05-27T03:50:18;4.10;;;3.67;;
15055;SDS011;7626;42.674;23.284;2023-05-27T03:52:45;4.20;;;3.80;;
15055;SDS011;7626;42.674;23.284;2023-05-27T03:55:13;3.93;;;3.63;;
15055;SDS011;7626;42.674;23.284;2023-05-27T03:57:41;3.93;;;3.53;;
15055;SDS011;7626;42.674;23.284;2023-05-27T04:00:09;3.80;;;3.37;;
15055;SDS011;7626;42.674;23.284;2023-05-27T04:02:37;3.80;;;3.50;;
15055;SDS011;7626;42.674;23.284;2023-05-27T04:05:04;3.77;;;3.47;;
15055;SDS011;7626;42.674;23.284;2023-05-27T04:07:31;4.73;;;3.70;;
15055;SDS011;7626;42.674;23.284;2023-05-27T04:09:58;3.87;;;3.50;;
15055;SDS011;7626;42.674;23.284;2023-05-27T04:12:26;3.83;;;3.53;;
15055;SDS011;7626;42.674;23.284;2023-05-27T04:14:53;4.57;;;4.17;;
15055;SDS011;7626;42.674;23.284;2023-05-27T04:17:21;4.50;;;3.63;;
15055;SDS011;7626;42.674;23.284;2023-05-27T04:19:48;4.53;;;3.43;;
15055;SDS011;7626;42.674;23.284;2023-05-27T04:22:15;4.20;;;3.80;;
15055;SDS011;7626;42.674;23.284;2023-05-27T04:24:41;4.60;;;3.97;;
15055;SDS011;7626;42.674;23.284;2023-05-27T04:27:09;4.00;;;3.60;;
15055;SDS011;7626;42.674;23.284;2023-05-27T04:29:39;4.03;;;3.73;;
15055;SDS011;7626;42.674;23.284;2023-05-27T04:32:07;5.27;;;4.13;;
15055;SDS011;7626;42.674;23.284;2023-05-27T04:34:35;3.90;;;3.60;;
15055;SDS011;7626;42.674;23.284;2023-05-27T04:37:02;4.40;;;4.00;;
15055;SDS011;7626;42.674;23.284;2023-05-27T04:39:29;4.40;;;4.00;;
15055;SDS011;7626;42.674;23.284;2023-05-27T04:41:55;5.60;;;5.03;;
15055;SDS011;7626;42.674;23.284;2023-05-27T04:44:23;5.07;;;4.10;;
15055;SDS011;7626;42.674;23.284;2023-05-27T04:46:53;4.77;;;4.00;;
15055;SDS011;7626;42.674;23.284;2023-05-27T04:49:20;3.70;;;3.40;;
15055;SDS011;7626;42.674;23.284;2023-05-27T04:51:48;4.30;;;3.90;;
15055;SDS011;7626;42.674;23.284;2023-05-27T04:54:15;4.93;;;3.73;;
15055;SDS011;7626;42.674;23.284;2023-05-27T04:56:41;4.53;;;3.40;;
15055;SDS011;7626;42.674;23.284;2023-05-27T04:59:10;4.17;;;3.77;;
15055;SDS011;7626;42.674;23.284;2023-05-27T05:01:41;4.40;;;4.00;;
15055;SDS011;7626;42.674;23.284;2023-05-27T05:04:25;4.10;;;3.77;;
15055;SDS011;7626;42.674;23.284;2023-05-27T05:06:52;4.27;;;3.87;;
15055;SDS011;7626;42.674;23.284;2023-05-27T05:09:20;4.37;;;3.97;;
15055;SDS011;7626;42.674;23.284;2023-05-27T05:11:47;4.30;;;3.90;;
15055;SDS011;7626;42.674;23.284;2023-05-27T05:14:14;4.30;;;4.00;;
15055;SDS011;7626;42.674;23.284;2023-05-27T05:16:41;3.80;;;3.50;;
15055;SDS011;7626;42.674;23.284;2023-05-27T05:19:07;4.67;;;3.60;;
15055;SDS011;7626;42.674;23.284;2023-05-27T05:21:35;3.90;;;3.50;;
15055;SDS011;7626;42.674;23.284;2023-05-27T05:24:02;4.83;;;3.30;;
15055;SDS011;7626;42.674;23.284;2023-05-27T05:26:30;4.47;;;3.23;;
15055;SDS011;7626;42.674;23.284;2023-05-27T05:28:56;3.97;;;3.63;;
15055;SDS011;7626;42.674;23.284;2023-05-27T05:31:23;4.53;;;3.73;;
15055;SDS011;7626;42.674;23.284;2023-05-27T05:33:50;3.80;;;3.50;;
15055;SDS011;7626;42.674;23.284;2023-05-27T05:36:17;3.57;;;3.27;;
15055;SDS011;7626;42.674;23.284;2023-05-27T05:38:45;3.93;;;3.57;;
15055;SDS011;7626;42.674;23.284;2023-05-27T05:41:12;4.80;;;3.70;;
15055;SDS011;7626;42.674;23.284;2023-05-27T05:43:39;3.67;;;3.27;;
15055;SDS011;7626;42.674;23.284;2023-05-27T05:46:05;4.17;;;3.80;;
15055;SDS011;7626;42.674;23.284;2023-05-27T05:48:32;3.87;;;3.57;;
15055;SDS011;7626;42.674;23.284;2023-05-27T05:50:59;4.93;;;4.00;;
15055;SDS011;7626;42.674;23.284;2023-05-27T05:53:26;3.70;;;3.40;;
15055;SDS011;7626;42.674;23.284;2023-05-27T05:55:55;4.47;;;4.07;;
15055;SDS011;7626;42.674;23.284;2023-05-27T05:58:22;5.47;;;3.97;;
15055;SDS011;7626;42.674;23.284;2023-05-27T06:00:48;6.23;;;4.10;;
15055;SDS011;7626;42.674;23.284;2023-05-27T06:03:15;4.77;;;4.37;;
15055;SDS011;7626;42.674;23.284;2023-05-27T06:05:42;4.93;;;4.47;;
15055;SDS011;7626;42.674;23.284;2023-05-27T06:08:09;4.77;;;4.37;;
15055;SDS011;7626;42.674;23.284;2023-05-27T06:10:35;5.20;;;4.70;;
15055;SDS011;7626;42.674;23.284;2023-05-27T06:13:04;5.50;;;4.90;;
15055;SDS011;7626;42.674;23.284;2023-05-27T06:15:30;6.17;;;5.67;;
15055;SDS011;7626;42.674;23.284;2023-05-27T06:17:58;5.67;;;5.13;;
15055;SDS011;7626;42.674;23.284;2023-05-27T06:20:25;6.83;;;5.70;;
15055;SDS011;7626;42.674;23.284;2023-05-27T06:22:52;5.57;;;5.17;;
15055;SDS011;7626;42.674;23.284;2023-05-27T06:25:19;7.50;;;6.00;;
15055;SDS011;7626;42.674;23.284;2023-05-27T06:27:45;6.93;;;5.90;;
15055;SDS011;7626;42.674;23.284;2023-05-27T06:30:14;6.40;;;5.70;;
15055;SDS011;7626;42.674;23.284;2023-05-27T06:32:41;7.23;;;5.47;;
15055;SDS011;7626;42.674;23.284;2023-05-27T06:35:07;7.40;;;5.73;;
15055;SDS011;7626;42.674;23.284;2023-05-27T06:37:34;6.30;;;5.80;;
15055;SDS011;7626;42.674;23.284;2023-05-27T06:40:01;6.90;;;6.20;;
15055;SDS011;7626;42.674;23.284;2023-05-27T06:42:29;6.43;;;5.83;;
15055;SDS011;7626;42.674;23.284;2023-05-27T06:44:56;7.73;;;5.50;;
15055;SDS011;7626;42.674;23.284;2023-05-27T06:47:24;6.63;;;5.63;;
15055;SDS011;7626;42.674;23.284;2023-05-27T06:49:50;7.40;;;5.63;;
15055;SDS011;7626;42.674;23.284;2023-05-27T06:52:17;6.33;;;5.63;;
15055;SDS011;7626;42.674;23.284;2023-05-27T06:54:44;7.63;;;6.17;;
15055;SDS011;7626;42.674;23.284;2023-05-27T06:57:11;5.87;;;5.27;;
15055;SDS011;7626;42.674;23.284;2023-05-27T06:59:38;6.07;;;5.47;;
15055;SDS011;7626;42.674;23.284;2023-05-27T07:02:05;7.33;;;5.37;;
15055;SDS011;7626;42.674;23.284;2023-05-27T07:04:33;5.30;;;4.73;;
15055;SDS011;7626;42.674;23.284;2023-05-27T07:07:01;6.07;;;5.20;;
15055;SDS011;7626;42.674;23.284;2023-05-27T07:09:28;5.73;;;4.97;;
15055;SDS011;7626;42.674;23.284;2023-05-27T07:11:54;6.80;;;5.90;;
15055;SDS011;7626;42.674;23.284;2023-05-27T07:14:21;6.27;;;5.63;;
15055;SDS011;7626;42.674;23.284;2023-05-27T07:16:48;8.00;;;5.93;;
15055;SDS011;7626;42.674;23.284;2023-05-27T07:19:15;6.67;;;5.60;;
15055;SDS011;7626;42.674;23.284;2023-05-27T07:21:43;6.87;;;5.97;;
15055;SDS011;7626;42.674;23.284;2023-05-27T07:24:09;6.27;;;5.53;;
15055;SDS011;7626;42.674;23.284;2023-05-27T07:26:36;8.57;;;6.23;;
15055;SDS011;7626;42.674;23.284;2023-05-27T07:29:03;6.57;;;5.97;;
15055;SDS011;7626;42.674;23.284;2023-05-27T07:31:30;6.87;;;6.23;;
15055;SDS011;7626;42.674;23.284;2023-05-27T07:33:57;6.90;;;6.20;;
15055;SDS011;7626;42.674;23.284;2023-05-27T07:36:23;8.23;;;6.30;;
15055;SDS011;7626;42.674;23.284;2023-05-27T07:38:52;6.27;;;5.73;;
15055;SDS011;7626;42.674;23.284;2023-05-27T07:41:18;6.60;;;6.00;;
15055;SDS011;7626;42.674;23.284;2023-05-27T07:43:46;6.53;;;5.90;;
15055;SDS011;7626;42.674;23.284;2023-05-27T07:46:12;7.67;;;7.00;;
15055;SDS011;7626;42.674;23.284;2023-05-27T07:48:39;6.93;;;6.23;;
15055;SDS011;7626;42.674;23.284;2023-05-27T07:51:06;6.97;;;6.37;;
15055;SDS011;7626;42.674;23.284;2023-05-27T07:53:32;7.50;;;6.23;;
15055;SDS011;7626;42.674;23.284;2023-05-27T07:56:01;8.27;;;6.40;;
15055;SDS011;7626;42.674;23.284;2023-05-27T07:58:28;7.40;;;6.20;;
15055;SDS011;7626;42.674;23.284;2023-05-27T08:00:54;7.80;;;6.50;;
15055;SDS011;7626;42.674;23.284;2023-05-27T08:03:21;6.83;;;6.00;;
15055;SDS011;7626;42.674;23.284;2023-05-27T08:05:48;7.93;;;6.00;;
15055;SDS011;7626;42.674;23.284;2023-05-27T08:08:15;7.17;;;6.10;;
15055;SDS011;7626;42.674;23.284;2023-05-27T08:10:41;8.10;;;6.93;;
15055;SDS011;7626;42.674;23.284;2023-05-27T08:13:10;7.13;;;6.23;;
